createdAt,value
2022-12-27T00:02:18.767Z,102076.16
2022-12-27T00:04:45.135Z,102083.00
2022-12-27T00:07:11.651Z,102077.88
2022-12-27T00:09:38.271Z,102076.16
2022-12-27T00:12:05.030Z,102079.59
2022-12-27T00:14:31.582Z,102065.84
2022-12-27T00:16:58.040Z,102059.03
2022-12-27T00:19:24.455Z,102065.84
2022-12-27T00:21:51.035Z,102065.84
2022-12-27T00:24:17.450Z,102075.28
2022-12-27T00:26:43.895Z,102071.88
2022-12-27T00:29:10.863Z,102080.44
2022-12-27T00:31:37.420Z,102081.31
2022-12-27T00:34:06.411Z,102077.88
2022-12-27T00:36:32.874Z,102079.59
2022-12-27T00:39:00.126Z,102074.44
2022-12-27T00:41:27.459Z,102076.16
2022-12-27T00:43:53.957Z,102072.72
2022-12-27T00:46:20.709Z,102083.88
2022-12-27T00:48:47.526Z,102079.56
2022-12-27T00:51:20.003Z,102077.00
2022-12-27T00:53:47.557Z,102079.59
2022-12-27T00:56:17.089Z,102087.28
2022-12-27T00:58:44.275Z,102086.44
2022-12-27T01:01:17.723Z,102095.88
2022-12-27T01:03:44.714Z,102096.72
2022-12-27T01:06:15.071Z,102102.75
2022-12-27T01:08:41.980Z,102107.88
2022-12-27T01:11:09.333Z,102125.03
2022-12-27T01:13:36.556Z,102123.34
2022-12-27T01:16:09.588Z,102127.59
2022-12-27T01:18:36.071Z,102124.19
2022-12-27T01:21:10.312Z,102126.72
2022-12-27T01:23:37.616Z,102134.47
2022-12-27T01:26:07.552Z,102127.56
2022-12-27T01:28:35.182Z,102125.00
2022-12-27T01:31:10.390Z,102129.28
2022-12-27T01:33:37.390Z,102139.56
2022-12-27T01:36:19.698Z,102151.59
2022-12-27T01:38:48.085Z,102155.03
2022-12-27T01:41:38.920Z,102160.19
2022-12-27T01:44:39.487Z,102178.19
2022-12-27T01:47:16.395Z,102170.47
2022-12-27T01:50:06.371Z,102169.63
2022-12-27T01:52:45.615Z,102168.78
2022-12-27T01:55:23.001Z,102168.75
2022-12-27T01:57:51.518Z,102162.78
2022-12-27T02:00:18.202Z,102161.91
2022-12-27T02:02:44.983Z,102179.94
2022-12-27T02:05:15.006Z,102188.53
2022-12-27T02:07:59.352Z,102197.06
2022-12-27T02:10:27.473Z,102192.81
2022-12-27T02:12:53.835Z,102183.34
2022-12-27T02:15:20.239Z,102183.34
2022-12-27T02:17:46.762Z,102182.50
2022-12-27T02:20:17.777Z,102191.94
2022-12-27T02:23:28.895Z,102191.94
2022-12-27T02:26:17.083Z,102191.09
2022-12-27T02:28:55.645Z,102181.66
2022-12-27T02:31:35.485Z,102185.06
2022-12-27T02:34:09.007Z,102199.69
2022-12-27T02:36:39.279Z,102209.09
2022-12-27T02:39:06.464Z,102209.97
2022-12-27T02:41:53.647Z,102203.97
2022-12-27T02:44:39.006Z,102207.41
2022-12-27T02:47:39.239Z,102208.25
2022-12-27T02:50:27.115Z,102212.53
2022-12-27T02:53:30.553Z,102221.97
2022-12-27T02:56:26.281Z,102215.97
2022-12-27T02:59:21.317Z,102225.41
2022-12-27T03:02:44.008Z,102227.09
2022-12-27T03:05:19.937Z,102225.38
2022-12-27T03:08:06.963Z,102221.09
2022-12-27T03:11:18.094Z,102212.53
2022-12-27T03:14:11.045Z,102217.69
2022-12-27T03:16:57.474Z,102217.66
2022-12-27T03:19:58.402Z,102217.66
2022-12-27T03:22:47.337Z,102215.94
2022-12-27T03:25:30.968Z,102221.09
2022-12-27T03:28:42.421Z,102221.09
2022-12-27T03:31:40.697Z,102213.38
2022-12-27T03:34:27.977Z,102225.38
2022-12-27T03:37:15.286Z,102230.53
2022-12-27T03:39:56.643Z,102229.66
2022-12-27T03:42:45.232Z,102227.94
2022-12-27T03:45:11.745Z,102225.38
2022-12-27T03:47:53.447Z,102226.22
2022-12-27T03:50:28.940Z,102229.66
2022-12-27T03:53:07.712Z,102229.63
2022-12-27T03:55:34.334Z,102236.50
2022-12-27T03:58:00.837Z,102230.50
2022-12-27T04:00:27.323Z,102242.50
2022-12-27T04:02:53.927Z,102243.38
2022-12-27T04:05:20.547Z,102248.50
2022-12-27T04:08:05.593Z,102238.22
2022-12-27T04:10:50.437Z,102247.66
2022-12-27T04:13:35.654Z,102246.78
2022-12-27T04:16:20.629Z,102251.06
2022-12-27T04:19:05.668Z,102241.66
2022-12-27T04:21:50.563Z,102245.06
2022-12-27T04:24:35.349Z,102245.91
2022-12-27T04:27:20.183Z,102247.63
2022-12-27T04:30:05.197Z,102251.97
2022-12-27T04:32:50.186Z,102255.38
2022-12-27T04:35:16.675Z,102257.06
2022-12-27T04:37:43.088Z,102258.78
2022-12-27T04:40:28.340Z,102265.63
2022-12-27T04:43:13.225Z,102251.91
2022-12-27T04:45:58.195Z,102263.91
2022-12-27T04:48:46.859Z,102257.91
2022-12-27T04:51:31.944Z,102254.50
2022-12-27T04:54:16.980Z,102258.75
2022-12-27T04:56:43.421Z,102251.03
2022-12-27T04:59:28.203Z,102257.03
2022-12-27T05:02:04.216Z,102252.75
2022-12-27T05:04:36.667Z,102261.31
2022-12-27T05:07:24.089Z,102267.34
2022-12-27T05:10:09.530Z,102259.66
2022-12-27T05:12:54.249Z,102263.06
2022-12-27T05:15:20.676Z,102267.38
2022-12-27T05:17:47.161Z,102270.81
2022-12-27T05:20:13.603Z,102269.97
2022-12-27T05:22:58.643Z,102275.97
2022-12-27T05:25:39.871Z,102276.81
2022-12-27T05:28:08.729Z,102282.78
2022-12-27T05:30:37.216Z,102280.22
2022-12-27T05:33:04.283Z,102287.91
2022-12-27T05:35:31.281Z,102303.31
2022-12-27T05:37:57.742Z,102301.63
2022-12-27T05:40:24.881Z,102303.34
2022-12-27T05:42:51.648Z,102298.19
2022-12-27T05:45:18.571Z,102298.16
2022-12-27T05:47:45.192Z,102311.03
2022-12-27T05:50:11.928Z,102311.03
2022-12-27T05:52:41.186Z,102309.31
2022-12-27T05:55:08.557Z,102311.91
2022-12-27T05:57:34.998Z,102313.63
2022-12-27T06:00:04.347Z,102315.38
2022-12-27T06:02:30.878Z,102311.09
2022-12-27T06:04:57.411Z,102315.34
2022-12-27T06:07:24.251Z,102307.66
2022-12-27T06:09:50.617Z,102310.19
2022-12-27T06:12:16.993Z,102309.34
2022-12-27T06:14:43.509Z,102323.91
2022-12-27T06:17:09.936Z,102323.88
2022-12-27T06:19:36.360Z,102323.88
2022-12-27T06:22:03.054Z,102322.16
2022-12-27T06:24:29.541Z,102329.00
2022-12-27T06:26:55.956Z,102330.72
2022-12-27T06:29:22.514Z,102336.72
2022-12-27T06:31:49.101Z,102336.72
2022-12-27T06:34:15.673Z,102335.84
2022-12-27T06:36:42.072Z,102336.69
2022-12-27T06:39:08.483Z,102343.56
2022-12-27T06:41:35.022Z,102348.69
2022-12-27T06:44:01.481Z,102346.97
2022-12-27T06:46:27.951Z,102350.41
2022-12-27T06:48:54.561Z,102352.94
2022-12-27T06:51:21.572Z,102364.94
2022-12-27T06:53:48.809Z,102355.53
2022-12-27T06:56:18.315Z,102367.53
2022-12-27T06:58:49.056Z,102369.22
2022-12-27T07:01:18.638Z,102371.81
2022-12-27T07:03:49.994Z,102361.53
2022-12-27T07:06:17.008Z,102370.97
2022-12-27T07:08:43.467Z,102373.53
2022-12-27T07:11:11.656Z,102376.06
2022-12-27T07:13:44.268Z,102368.38
2022-12-27T07:16:13.378Z,102375.25
2022-12-27T07:18:40.353Z,102367.53
2022-12-27T07:21:09.288Z,102378.69
2022-12-27T07:23:36.619Z,102371.81
2022-12-27T07:26:08.640Z,102371.84
2022-12-27T07:28:35.305Z,102370.13
2022-12-27T07:31:08.046Z,102376.97
2022-12-27T07:33:35.509Z,102376.13
2022-12-27T07:36:02.526Z,102385.56
2022-12-27T07:38:28.995Z,102385.56
2022-12-27T07:40:59.269Z,102373.59
2022-12-27T07:43:26.814Z,102390.75
2022-12-27T07:45:53.285Z,102388.19
2022-12-27T07:48:19.723Z,102395.06
2022-12-27T07:50:54.999Z,102404.47
2022-12-27T07:53:21.753Z,102407.91
2022-12-27T07:55:48.741Z,102407.03
2022-12-27T07:58:15.172Z,102407.00
2022-12-27T08:00:41.599Z,102413.84
2022-12-27T08:03:08.038Z,102416.44
2022-12-27T08:05:34.447Z,102430.16
2022-12-27T08:08:02.485Z,102427.59
2022-12-27T08:10:28.921Z,102439.63
2022-12-27T08:12:55.394Z,102444.81
2022-12-27T08:15:21.848Z,102443.97
2022-12-27T08:17:48.275Z,102441.41
2022-12-27T08:20:14.789Z,102437.94
2022-12-27T08:22:41.247Z,102444.78
2022-12-27T08:25:08.018Z,102437.94
2022-12-27T08:27:34.473Z,102438.81
2022-12-27T08:30:00.902Z,102437.09
2022-12-27T08:32:27.350Z,102432.78
2022-12-27T08:34:53.781Z,102441.38
2022-12-27T08:37:20.341Z,102443.97
2022-12-27T08:39:46.792Z,102437.97
2022-12-27T08:42:14.047Z,102431.13
2022-12-27T08:44:40.499Z,102427.72
2022-12-27T08:47:06.980Z,102442.28
2022-12-27T08:49:33.448Z,102433.72
2022-12-27T08:51:59.945Z,102438.00
2022-12-27T08:54:26.431Z,102438.88
2022-12-27T08:56:52.872Z,102435.47
2022-12-27T08:59:19.271Z,102440.59
2022-12-27T09:01:45.772Z,102438.94
2022-12-27T09:04:12.322Z,102438.06
2022-12-27T09:06:40.634Z,102429.53
2022-12-27T09:09:07.036Z,102431.25
2022-12-27T09:11:34.425Z,102438.97
2022-12-27T09:14:05.417Z,102439.00
2022-12-27T09:16:34.041Z,102445.91
2022-12-27T09:19:00.849Z,102453.63
2022-12-27T09:21:29.938Z,102456.25
2022-12-27T09:23:56.404Z,102458.84
2022-12-27T09:26:25.461Z,102449.41
2022-12-27T09:28:52.317Z,102452.84
2022-12-27T09:31:20.601Z,102447.72
2022-12-27T09:33:47.412Z,102444.28
2022-12-27T09:36:23.370Z,102447.75
2022-12-27T09:38:52.612Z,102455.47
2022-12-27T09:44:34.495Z,102456.38
2022-12-27T09:47:05.398Z,102464.09
2022-12-27T09:50:03.338Z,102459.00
2022-12-27T09:52:35.035Z,102461.56
2022-12-27T09:55:07.912Z,102465.00
2022-12-27T09:57:38.753Z,102457.28
2022-12-27T10:00:14.635Z,102455.56
2022-12-27T10:02:44.543Z,102449.53
2022-12-27T10:05:34.405Z,102454.69
2022-12-27T10:08:07.039Z,102456.44
2022-12-27T10:11:33.043Z,102466.75
2022-12-27T10:14:19.177Z,102471.06
2022-12-27T10:16:58.521Z,102479.66
2022-12-27T10:19:28.150Z,102464.19
2022-12-27T10:21:54.490Z,102459.03
2022-12-27T10:24:26.077Z,102465.91
2022-12-27T10:26:55.346Z,102479.66
2022-12-27T10:29:26.513Z,102474.50
2022-12-27T10:31:52.937Z,102486.56
2022-12-27T10:34:24.604Z,102479.66
2022-12-27T10:36:53.243Z,102471.94
2022-12-27T10:39:30.069Z,102474.50
2022-12-27T10:42:23.748Z,102467.63
2022-12-27T10:44:50.142Z,102471.06
2022-12-27T10:47:16.948Z,102475.38
2022-12-27T10:49:59.586Z,102474.50
2022-12-27T10:52:30.454Z,102472.78
2022-12-27T10:54:57.716Z,102477.94
2022-12-27T10:57:26.872Z,102479.66
2022-12-27T11:00:24.004Z,102471.94
2022-12-27T11:06:33.393Z,102463.31
2022-12-27T11:09:27.388Z,102459.00
2022-12-27T11:12:53.510Z,102455.56
2022-12-27T11:15:58.499Z,102452.13
2022-12-27T11:18:51.068Z,102454.69
2022-12-27T11:24:33.635Z,102456.38
2022-12-27T11:27:00.942Z,102451.22
2022-12-27T11:29:45.459Z,102443.44
2022-12-27T11:33:24.112Z,102441.72
2022-12-27T11:35:54.219Z,102438.25
2022-12-27T11:38:26.952Z,102443.41
2022-12-27T11:41:05.432Z,102441.63
2022-12-27T11:43:50.729Z,102437.22
2022-12-27T11:46:35.260Z,102432.06
2022-12-27T11:49:05.592Z,102434.63
2022-12-27T11:52:07.620Z,102438.88
2022-12-27T11:54:59.952Z,102450.06
2022-12-27T11:57:39.072Z,102450.03
2022-12-27T12:00:17.445Z,102437.91
2022-12-27T12:03:35.684Z,102448.28
2022-12-27T12:06:35.740Z,102437.09
2022-12-27T12:09:21.865Z,102438.81
2022-12-27T12:12:01.637Z,102434.53
2022-12-27T12:14:49.993Z,102427.66
2022-12-27T12:17:21.753Z,102427.66
2022-12-27T12:20:25.586Z,102413.03
2022-12-27T12:23:30.167Z,102406.97
2022-12-27T12:26:28.699Z,102401.78
2022-12-27T12:29:26.072Z,102393.97
2022-12-27T12:32:06.918Z,102403.44
2022-12-27T12:34:55.024Z,102400.00
2022-12-27T12:37:58.797Z,102393.91
2022-12-27T12:40:45.794Z,102389.63
2022-12-27T12:43:30.967Z,102387.03
2022-12-27T12:46:35.144Z,102377.44
2022-12-27T12:49:31.990Z,102367.03
2022-12-27T12:52:17.851Z,102366.13
2022-12-27T12:54:52.689Z,102364.38
2022-12-27T12:57:40.317Z,102360.03
2022-12-27T13:00:25.975Z,102358.34
2022-12-27T13:03:17.626Z,102345.47
2022-12-27T13:05:56.270Z,102342.94
2022-12-27T13:08:50.973Z,102333.47
2022-12-27T13:11:39.892Z,102328.31
2022-12-27T13:14:24.713Z,102317.06
2022-12-27T13:16:54.151Z,102323.09
2022-12-27T13:19:38.683Z,102313.63
2022-12-27T13:22:14.176Z,102324.00
2022-12-27T13:25:28.052Z,102315.38
2022-12-27T13:28:28.004Z,102324.88
2022-12-27T13:31:19.989Z,102308.47
2022-12-27T13:34:18.503Z,102311.06
2022-12-27T13:37:15.027Z,102304.13
2022-12-27T13:40:12.903Z,102299.81
2022-12-27T13:43:05.716Z,102296.31
2022-12-27T13:45:51.963Z,102283.34
2022-12-27T13:48:46.320Z,102280.69
2022-12-27T13:51:38.800Z,102278.03
2022-12-27T13:54:41.804Z,102266.81
2022-12-27T13:57:42.006Z,102262.53
2022-12-27T14:00:20.059Z,102266.91
2022-12-27T14:03:20.404Z,102260.00
2022-12-27T14:06:11.844Z,102250.56
2022-12-27T14:09:05.296Z,102244.53
2022-12-27T14:11:44.335Z,102247.13
2022-12-27T14:14:21.334Z,102241.97
2022-12-27T14:17:13.604Z,102232.50
2022-12-27T14:20:04.724Z,102245.47
2022-12-27T14:22:37.319Z,102244.63
2022-12-27T14:25:41.387Z,102244.63
2022-12-27T14:28:21.698Z,102248.09
2022-12-27T14:31:14.472Z,102251.59
2022-12-27T14:34:01.811Z,102245.56
2022-12-27T14:36:46.939Z,102242.19
2022-12-27T14:39:37.769Z,102241.31
2022-12-27T14:42:22.445Z,102235.28
2022-12-27T14:45:10.212Z,102238.75
2022-12-27T14:48:19.726Z,102243.06
2022-12-27T14:51:41.545Z,102236.19
2022-12-27T14:54:38.360Z,102237.94
2022-12-27T14:57:28.716Z,102225.06
2022-12-27T15:00:20.684Z,102220.78
2022-12-27T15:02:56.398Z,102215.63
2022-12-27T15:05:40.600Z,102214.78
2022-12-27T15:08:25.887Z,102213.03
2022-12-27T15:11:14.075Z,102207.91
2022-12-27T15:13:43.393Z,102201.03
2022-12-27T15:16:21.264Z,102206.22
2022-12-27T15:18:55.155Z,102207.13
2022-12-27T15:21:46.284Z,102208.03
2022-12-27T15:24:29.984Z,102206.34
2022-12-27T15:27:16.401Z,102202.06
2022-12-27T15:29:52.322Z,102215.84
2022-12-27T15:32:27.716Z,102208.09
2022-12-27T15:35:20.348Z,102215.84
2022-12-27T15:38:02.708Z,102222.75
2022-12-27T15:40:42.743Z,102237.34
2022-12-27T15:43:35.044Z,102233.91
2022-12-27T15:46:20.480Z,102223.59
2022-12-27T15:49:04.834Z,102221.00
2022-12-27T15:51:49.632Z,102196.06
2022-12-27T15:54:15.913Z,102200.38
2022-12-27T15:57:16.689Z,102196.94
2022-12-27T16:00:05.441Z,102206.41
2022-12-27T16:02:49.268Z,102193.50
2022-12-27T16:05:19.025Z,102194.38
2022-12-27T16:08:00.585Z,102193.50
2022-12-27T16:10:31.953Z,102200.41
2022-12-27T16:13:04.487Z,102194.34
2022-12-27T16:15:43.516Z,102203.81
2022-12-27T16:18:18.883Z,102205.56
2022-12-27T16:21:21.205Z,102197.81
2022-12-27T16:23:47.569Z,102205.56
2022-12-27T16:26:19.946Z,102194.38
2022-12-27T16:29:01.551Z,102186.63
2022-12-27T16:31:33.589Z,102186.56
2022-12-27T16:34:28.875Z,102191.75
2022-12-27T16:36:58.211Z,102190.00
2022-12-27T16:39:40.110Z,102189.16
2022-12-27T16:42:08.482Z,102195.16
2022-12-27T16:45:32.948Z,102195.13
2022-12-27T16:48:31.382Z,102195.13
2022-12-27T16:51:08.232Z,102196.84
2022-12-27T16:53:43.768Z,102191.69
2022-12-27T16:56:15.068Z,102193.38
2022-12-27T16:58:41.950Z,102185.63
2022-12-27T17:01:35.957Z,102183.88
2022-12-27T17:04:03.612Z,102158.94
2022-12-27T17:06:33.207Z,102164.09
2022-12-27T17:09:09.332Z,102152.03
2022-12-27T17:11:42.869Z,102141.72
2022-12-27T17:14:14.879Z,102136.59
2022-12-27T17:16:47.510Z,102136.63
2022-12-27T17:19:39.094Z,102125.41
2022-12-27T17:22:07.927Z,102125.47
2022-12-27T17:24:34.464Z,102113.38
2022-12-27T17:27:16.535Z,102114.22
2022-12-27T17:30:13.734Z,102110.78
2022-12-27T17:33:00.117Z,102100.41
2022-12-27T17:35:41.586Z,102109.91
2022-12-27T17:38:24.963Z,102097.84
2022-12-27T17:41:15.117Z,102096.13
2022-12-27T17:44:15.789Z,102093.50
2022-12-27T17:46:49.080Z,102098.66
2022-12-27T17:49:16.823Z,102091.75
2022-12-27T17:52:05.628Z,102096.88
2022-12-27T17:54:50.879Z,102086.50
2022-12-27T17:57:38.178Z,102089.94
2022-12-27T18:00:06.654Z,102089.09
2022-12-27T18:02:39.434Z,102087.38
2022-12-27T18:05:12.286Z,102079.66
2022-12-27T18:07:39.268Z,102083.09
2022-12-27T18:10:14.893Z,102079.66
2022-12-27T18:12:43.248Z,102072.81
2022-12-27T18:15:16.551Z,102071.91
2022-12-27T18:17:46.187Z,102067.59
2022-12-27T18:20:28.079Z,102059.88
2022-12-27T18:23:00.649Z,102071.06
2022-12-27T18:25:31.260Z,102050.41
2022-12-27T18:28:06.707Z,102052.19
2022-12-27T18:30:40.395Z,102047.06
2022-12-27T18:33:07.299Z,102044.50
2022-12-27T18:35:34.863Z,102044.50
2022-12-27T18:38:06.424Z,102040.22
2022-12-27T18:40:34.217Z,102037.63
2022-12-27T18:43:00.791Z,102029.88
2022-12-27T18:45:30.353Z,102027.31
2022-12-27T18:48:00.799Z,102016.97
2022-12-27T18:50:32.543Z,102013.50
2022-12-27T18:53:26.259Z,101999.81
2022-12-27T18:56:01.709Z,102001.56
2022-12-27T18:58:28.603Z,101996.44
2022-12-27T19:01:25.282Z,101985.28
2022-12-27T19:04:13.831Z,101982.69
2022-12-27T19:06:55.415Z,101985.28
2022-12-27T19:09:26.645Z,101987.88
2022-12-27T19:12:14.575Z,101990.50
2022-12-27T19:14:43.830Z,101986.25
2022-12-27T19:17:26.404Z,101983.66
2022-12-27T19:19:56.099Z,101990.56
2022-12-27T19:22:48.218Z,101986.31
2022-12-27T19:25:18.447Z,101987.16
2022-12-27T19:28:09.844Z,101969.06
2022-12-27T19:30:44.202Z,101961.34
2022-12-27T19:33:32.449Z,101960.56
2022-12-27T19:36:00.753Z,101964.84
2022-12-27T19:38:28.872Z,101964.00
2022-12-27T19:41:03.252Z,101956.25
2022-12-27T19:43:38.078Z,101946.81
2022-12-27T19:46:04.901Z,101939.06
2022-12-27T19:48:31.453Z,101935.59
2022-12-27T19:50:58.408Z,101931.31
2022-12-27T19:53:31.039Z,101928.72
2022-12-27T19:55:58.363Z,101933.91
2022-12-27T19:58:27.468Z,101929.59
2022-12-27T20:00:54.107Z,101924.41
2022-12-27T20:03:20.699Z,101915.84
2022-12-27T20:06:14.442Z,101914.09
2022-12-27T20:08:37.985Z,101910.66
2022-12-27T20:11:06.659Z,101916.66
2022-12-27T20:13:33.596Z,101896.84
2022-12-27T20:16:00.698Z,101897.72
2022-12-27T20:18:27.116Z,101895.97
2022-12-27T20:20:53.763Z,101884.78
2022-12-27T20:23:21.575Z,101887.34
2022-12-27T20:25:49.580Z,101880.44
2022-12-27T20:28:17.974Z,101879.59
2022-12-27T20:30:46.249Z,101878.72
2022-12-27T20:33:13.583Z,101871.81
2022-12-27T20:35:40.589Z,101865.78
2022-12-27T20:38:09.025Z,101871.81
2022-12-27T20:40:35.581Z,101860.63
2022-12-27T20:43:02.044Z,101863.22
2022-12-27T20:45:28.841Z,101864.03
2022-12-27T20:47:55.303Z,101868.31
2022-12-27T20:50:21.906Z,101868.28
2022-12-27T20:52:48.324Z,101858.81
2022-12-27T20:55:14.795Z,101859.66
2022-12-27T20:57:42.469Z,101854.50
2022-12-27T21:00:10.571Z,101853.63
2022-12-27T21:02:38.846Z,101834.66
2022-12-27T21:05:06.412Z,101833.81
2022-12-27T21:07:33.190Z,101833.81
2022-12-27T21:09:59.727Z,101833.81
2022-12-27T21:12:26.199Z,101845.88
2022-12-27T21:14:52.628Z,101839.81
2022-12-27T21:17:19.057Z,101832.91
2022-12-27T21:19:45.752Z,101833.81
2022-12-27T21:22:12.190Z,101829.50
2022-12-27T21:24:38.815Z,101821.72
2022-12-27T21:27:05.295Z,101823.47
2022-12-27T21:29:31.710Z,101808.81
2022-12-27T21:31:58.141Z,101813.97
2022-12-27T21:34:24.585Z,101806.22
2022-12-27T21:36:54.139Z,101799.34
2022-12-27T21:39:20.886Z,101797.66
2022-12-27T21:41:47.282Z,101789.91
2022-12-27T21:44:13.688Z,101790.72
2022-12-27T21:46:41.983Z,101790.72
2022-12-27T21:49:12.306Z,101777.75
2022-12-27T21:51:40.312Z,101775.19
2022-12-27T21:54:07.745Z,101775.22
2022-12-27T21:56:34.328Z,101778.66
2022-12-27T21:59:03.000Z,101751.09
2022-12-27T22:01:30.901Z,101757.09
2022-12-27T22:04:17.197Z,101757.97
2022-12-27T22:06:47.219Z,101758.84
2022-12-27T22:09:14.491Z,101758.84
2022-12-27T22:11:41.006Z,101748.53
2022-12-27T22:14:07.565Z,101755.41
2022-12-27T22:16:36.833Z,101734.69
2022-12-27T22:19:06.531Z,101732.13
2022-12-27T22:21:35.641Z,101734.69
2022-12-27T22:24:03.584Z,101728.69
2022-12-27T22:26:37.338Z,101736.41
2022-12-27T22:29:05.321Z,101725.25
2022-12-27T22:31:35.325Z,101722.72
2022-12-27T22:34:03.915Z,101709.88
2022-12-27T22:36:30.557Z,101720.22
2022-12-27T22:38:59.485Z,101716.84
2022-12-27T22:41:30.358Z,101725.47
2022-12-27T22:44:03.644Z,101711.72
2022-12-27T22:46:51.110Z,101710.06
2022-12-27T22:49:17.220Z,101706.66
2022-12-27T22:51:43.840Z,101710.13
2022-12-27T22:54:10.294Z,101696.38
2022-12-27T22:56:39.775Z,101690.38
2022-12-27T22:59:11.424Z,101683.50
2022-12-27T23:04:14.315Z,101667.22
2022-12-27T23:06:41.646Z,101637.13
2022-12-27T23:09:08.413Z,101638.00
2022-12-27T23:11:38.130Z,101644.03
2022-12-27T23:14:16.691Z,101632.88
2022-12-27T23:16:45.941Z,101622.53
2022-12-27T23:19:13.865Z,101623.44
2022-12-27T23:21:40.359Z,101625.16
2022-12-27T23:24:07.581Z,101619.13
2022-12-27T23:26:34.191Z,101610.56
2022-12-27T23:29:00.821Z,101610.56
2022-12-27T23:31:27.738Z,101604.56
2022-12-27T23:33:54.324Z,101600.25
2022-12-27T23:36:21.681Z,101604.56
2022-12-27T23:38:48.605Z,101601.97
2022-12-27T23:41:21.062Z,101597.66
2022-12-27T23:43:53.356Z,101588.16
2022-12-27T23:46:27.453Z,101587.31
2022-12-27T23:48:54.843Z,101578.72
2022-12-27T23:51:21.858Z,101573.56
2022-12-27T23:53:48.565Z,101564.13
2022-12-27T23:56:22.113Z,101550.38
2022-12-27T23:58:50.105Z,101541.78
